Time;durP1;ratioP1;P1;durP2;ratioP2;P2;SDS_P1;SDS_P2;PMS_P1;PMS_P2;Temp;Humidity;BMP_temperature;BMP_pressure;BME280_temperature;BME280_humidity;BME280_pressure;Samples;Min_cycle;Max_cycle;Signal;HPM_P1;HPM_P2
2022/07/22 00:00:24;;;;;;;8.10;1.30;;;15.20;84.20;;;;;;5053281;28;20274;-67
2022/07/22 00:02:50;;;;;;;5.80;1.40;;;15.20;84.30;;;;;;5041543;28;20383;-67
2022/07/22 00:05:16;;;;;;;4.80;1.47;;;15.20;84.30;;;;;;5049213;28;20126;-67
2022/07/22 00:07:41;;;;;;;7.47;1.67;;;15.20;84.70;;;;;;5049908;28;20169;-67
2022/07/22 00:10:10;;;;;;;5.80;1.80;;;15.20;84.50;;;;;;5043386;28;20091;-67
2022/07/22 00:12:37;;;;;;;6.13;1.83;;;15.20;84.60;;;;;;5056670;28;20123;-67
2022/07/22 00:15:04;;;;;;;8.00;1.93;;;15.20;84.50;;;;;;5044804;28;20729;-67
2022/07/22 00:17:30;;;;;;;5.53;1.37;;;15.20;84.80;;;;;;5064357;28;20774;-67
2022/07/22 00:19:56;;;;;;;8.70;1.60;;;15.20;84.80;;;;;;5027143;28;20286;-67
2022/07/22 00:22:21;;;;;;;7.33;1.37;;;15.20;84.80;;;;;;5037802;28;20127;-67
2022/07/22 00:24:47;;;;;;;7.57;1.60;;;15.20;85.10;;;;;;5050331;28;20110;-66
2022/07/22 00:27:13;;;;;;;8.53;1.40;;;15.20;85.10;;;;;;5052582;28;20040;-67
2022/07/22 00:29:39;;;;;;;7.47;1.60;;;15.20;85.10;;;;;;5043479;28;20575;-67
2022/07/22 00:32:05;;;;;;;6.83;1.67;;;15.20;85.30;;;;;;5040673;28;20047;-67
2022/07/22 00:34:30;;;;;;;5.70;1.50;;;15.20;85.40;;;;;;5038681;28;20095;-67
2022/07/22 00:36:56;;;;;;;4.80;1.40;;;15.20;85.50;;;;;;5029993;28;20283;-66
2022/07/22 00:39:22;;;;;;;7.87;1.83;;;15.20;85.60;;;;;;5037922;28;20037;-66
2022/07/22 00:41:48;;;;;;;7.90;1.50;;;15.20;85.50;;;;;;5054923;28;20041;-66
2022/07/22 00:44:14;;;;;;;5.70;1.43;;;15.20;85.60;;;;;;5037041;28;20327;-66
2022/07/22 00:46:40;;;;;;;4.70;1.87;;;15.20;85.70;;;;;;5035466;28;20314;-66
2022/07/22 00:49:08;;;;;;;6.10;1.63;;;15.20;85.60;;;;;;5043333;28;20048;-66
2022/07/22 00:51:35;;;;;;;10.13;2.07;;;15.20;86.00;;;;;;5030949;28;20292;-66
2022/07/22 00:54:02;;;;;;;9.40;1.60;;;15.20;85.80;;;;;;5048587;28;20322;-66
2022/07/22 00:56:28;;;;;;;6.23;1.67;;;15.20;85.90;;;;;;5062050;28;20348;-66
2022/07/22 00:58:57;;;;;;;5.90;1.50;;;15.20;85.80;;;;;;5052204;28;20279;-66
2022/07/22 01:01:22;;;;;;;10.03;2.23;;;15.30;85.90;;;;;;5054892;28;20287;-66
2022/07/22 01:03:48;;;;;;;10.43;1.97;;;15.30;85.80;;;;;;5040354;28;20290;-66
2022/07/22 01:06:14;;;;;;;4.67;1.20;;;15.30;85.60;;;;;;5057688;28;20119;-66
2022/07/22 01:08:40;;;;;;;6.13;1.30;;;15.30;85.60;;;;;;5039952;28;20040;-66
2022/07/22 01:11:12;;;;;;;8.50;2.27;;;15.30;85.40;;;;;;5061661;28;20388;-66
2022/07/22 01:13:39;;;;;;;5.00;1.23;;;15.30;85.40;;;;;;5055154;28;20376;-66
2022/07/22 01:16:06;;;;;;;4.30;1.13;;;15.20;85.10;;;;;;5037823;28;20345;-66
2022/07/22 01:18:32;;;;;;;9.50;1.30;;;15.20;84.60;;;;;;5038657;28;20323;-67
2022/07/22 01:20:58;;;;;;;6.50;1.17;;;15.20;84.80;;;;;;5054255;28;20271;-66
2022/07/22 01:23:24;;;;;;;3.87;1.10;;;15.20;84.80;;;;;;5037970;28;20040;-66
2022/07/22 01:25:50;;;;;;;4.40;0.80;;;15.20;84.70;;;;;;5050415;28;20048;-66
2022/07/22 01:28:16;;;;;;;7.50;1.20;;;15.20;84.20;;;;;;5051139;28;20654;-66
2022/07/22 01:30:42;;;;;;;4.53;0.93;;;15.20;84.20;;;;;;5046184;28;20045;-67
2022/07/22 01:33:07;;;;;;;5.57;1.17;;;15.20;83.50;;;;;;5053489;28;20434;-67
2022/07/22 01:35:33;;;;;;;6.80;1.10;;;15.20;83.40;;;;;;5038498;28;20090;-67
2022/07/22 01:37:59;;;;;;;4.67;1.37;;;15.20;83.50;;;;;;5052703;28;20083;-67
2022/07/22 01:40:24;;;;;;;4.17;1.30;;;15.20;83.70;;;;;;5038001;28;20043;-67
2022/07/22 01:42:50;;;;;;;5.90;1.30;;;15.10;83.40;;;;;;5054735;28;20538;-67
2022/07/22 01:45:16;;;;;;;4.17;1.50;;;15.20;83.20;;;;;;5035562;28;20812;-67
2022/07/22 01:47:42;;;;;;;5.50;1.17;;;15.10;82.40;;;;;;5026584;28;20037;-67
2022/07/22 01:50:09;;;;;;;8.40;1.43;;;15.10;82.30;;;;;;5056884;28;20032;-67
2022/07/22 01:52:36;;;;;;;5.80;1.50;;;15.10;82.30;;;;;;5035450;28;20048;-67
2022/07/22 01:55:02;;;;;;;7.60;1.47;;;15.10;82.60;;;;;;5053200;28;20758;-67
2022/07/22 01:57:27;;;;;;;7.10;1.83;;;15.10;82.30;;;;;;5058339;28;20294;-67
2022/07/22 01:59:53;;;;;;;5.67;1.53;;;15.10;82.30;;;;;;5043639;28;20199;-67
2022/07/22 02:02:19;;;;;;;6.67;1.33;;;15.10;82.40;;;;;;5034464;28;20178;-66
2022/07/22 02:04:44;;;;;;;4.23;1.00;;;15.10;82.30;;;;;;5058839;28;20040;-66
2022/07/22 02:07:10;;;;;;;5.60;1.53;;;15.10;82.10;;;;;;5040420;28;20056;-66
2022/07/22 02:09:36;;;;;;;3.93;1.40;;;15.10;82.00;;;;;;5048169;28;20040;-66
2022/07/22 02:12:01;;;;;;;5.37;0.90;;;15.10;81.80;;;;;;5044289;28;20037;-66
2022/07/22 02:14:27;;;;;;;6.10;1.90;;;15.10;81.80;;;;;;5059391;28;20044;-66
2022/07/22 02:16:53;;;;;;;4.73;1.20;;;15.10;82.00;;;;;;5031397;28;20056;-66
2022/07/22 02:19:18;;;;;;;2.97;1.00;;;15.00;81.70;;;;;;5046384;28;20059;-66
2022/07/22 02:21:44;;;;;;;3.50;1.33;;;15.00;81.80;;;;;;5008816;28;20041;-66
2022/07/22 02:24:10;;;;;;;4.73;1.37;;;15.10;82.10;;;;;;5052242;28;20040;-66
2022/07/22 02:26:36;;;;;;;5.37;1.53;;;15.10;81.80;;;;;;5057764;28;20093;-66
2022/07/22 02:29:02;;;;;;;7.80;1.47;;;15.10;81.40;;;;;;5042217;28;20076;-66
2022/07/22 02:31:27;;;;;;;7.03;1.63;;;15.00;81.30;;;;;;5037667;28;20055;-67
2022/07/22 02:33:53;;;;;;;5.17;1.70;;;15.00;80.90;;;;;;5022428;28;20404;-67
2022/07/22 02:36:19;;;;;;;6.33;1.60;;;15.00;81.10;;;;;;5044866;28;20032;-67
2022/07/22 02:38:44;;;;;;;5.27;1.40;;;15.00;81.30;;;;;;5022264;28;20124;-67
2022/07/22 02:41:10;;;;;;;4.03;1.30;;;15.00;81.20;;;;;;5041409;28;20055;-67
2022/07/22 02:43:36;;;;;;;4.97;1.50;;;15.00;80.80;;;;;;5055326;28;20045;-67
2022/07/22 02:46:02;;;;;;;6.00;1.37;;;15.00;80.80;;;;;;5046716;28;20040;-67
2022/07/22 02:48:28;;;;;;;6.00;1.47;;;14.90;80.40;;;;;;5027524;28;20159;-67
2022/07/22 02:50:53;;;;;;;5.43;1.50;;;15.00;80.20;;;;;;5033150;28;20383;-67
2022/07/22 02:53:20;;;;;;;5.67;1.70;;;14.90;80.20;;;;;;5053760;28;20048;-67
2022/07/22 02:55:46;;;;;;;3.77;1.57;;;14.90;80.50;;;;;;5059373;28;20401;-65
2022/07/22 02:58:11;;;;;;;4.80;1.37;;;14.90;80.70;;;;;;5044784;28;20279;-66
2022/07/22 03:00:37;;;;;;;5.83;1.60;;;14.90;80.90;;;;;;5049326;28;20067;-66
2022/07/22 03:03:03;;;;;;;4.30;1.60;;;14.90;80.90;;;;;;5056878;28;20045;-66
2022/07/22 03:05:29;;;;;;;4.97;1.60;;;14.80;80.90;;;;;;5046466;28;20404;-66
2022/07/22 03:07:55;;;;;;;4.93;1.13;;;14.80;81.00;;;;;;5059743;28;20280;-66
2022/07/22 03:10:21;;;;;;;5.33;1.60;;;14.80;81.00;;;;;;5056047;28;20072;-66
2022/07/22 03:12:47;;;;;;;5.97;1.50;;;14.80;80.70;;;;;;5044812;28;20097;-66
2022/07/22 03:15:13;;;;;;;4.60;1.07;;;14.80;80.60;;;;;;5034690;28;20068;-67
2022/07/22 03:17:39;;;;;;;3.93;1.03;;;14.80;80.80;;;;;;5061315;28;20645;-66
2022/07/22 03:20:09;;;;;;;4.83;1.00;;;14.80;81.00;;;;;;5035260;28;20056;-66
2022/07/22 03:22:35;;;;;;;9.43;2.43;;;14.90;81.50;;;;;;5049625;28;20150;-66
2022/07/22 03:25:02;;;;;;;5.53;1.10;;;14.90;81.70;;;;;;5031946;28;20838;-66
2022/07/22 03:27:28;;;;;;;4.73;1.23;;;14.90;81.80;;;;;;5059517;28;20373;-66
2022/07/22 03:29:53;;;;;;;4.67;1.57;;;14.90;81.90;;;;;;5032630;28;20869;-66
2022/07/22 03:32:19;;;;;;;4.00;1.00;;;14.90;81.50;;;;;;5046591;28;20044;-66
2022/07/22 03:34:45;;;;;;;5.73;1.57;;;14.90;81.60;;;;;;5035036;28;20079;-66
2022/07/22 03:37:10;;;;;;;7.03;0.83;;;14.90;81.60;;;;;;5050458;28;20479;-66
2022/07/22 03:39:36;;;;;;;5.80;1.23;;;14.90;81.50;;;;;;5026802;28;20086;-66
2022/07/22 03:42:02;;;;;;;4.20;1.13;;;14.90;81.50;;;;;;5061526;28;20051;-66
2022/07/22 03:44:28;;;;;;;4.57;1.33;;;14.90;81.60;;;;;;5057445;28;20290;-66
2022/07/22 03:46:54;;;;;;;3.00;0.97;;;14.90;81.30;;;;;;5045743;28;20775;-66
2022/07/22 03:49:20;;;;;;;5.30;1.03;;;14.90;81.20;;;;;;5021641;28;20049;-66
2022/07/22 03:51:45;;;;;;;5.47;0.80;;;14.90;81.00;;;;;;5039274;28;20155;-66
2022/07/22 03:54:11;;;;;;;4.80;1.10;;;14.90;80.80;;;;;;5037508;28;20056;-66
2022/07/22 03:56:37;;;;;;;5.07;1.23;;;14.90;80.30;;;;;;5057170;28;20045;-66
2022/07/22 03:59:03;;;;;;;4.90;1.00;;;14.90;80.40;;;;;;5048573;28;20095;-66
2022/07/22 04:01:29;;;;;;;7.57;1.20;;;14.90;80.00;;;;;;5053936;28;20282;-66
2022/07/22 04:03:54;;;;;;;4.83;1.20;;;14.90;80.40;;;;;;5041381;28;20040;-66
2022/07/22 04:06:20;;;;;;;7.53;0.90;;;14.90;80.30;;;;;;5060899;28;20475;-66
2022/07/22 04:08:46;;;;;;;4.93;0.97;;;14.90;79.80;;;;;;5036555;28;20055;-66
2022/07/22 04:11:11;;;;;;;3.57;1.10;;;14.90;80.20;;;;;;5043584;28;20051;-67
2022/07/22 04:13:37;;;;;;;3.07;1.00;;;14.90;80.30;;;;;;5046759;28;20044;-67
2022/07/22 04:16:03;;;;;;;4.97;0.90;;;14.90;80.40;;;;;;5060418;28;20036;-67
2022/07/22 04:18:32;;;;;;;5.90;1.20;;;15.00;80.60;;;;;;5046415;28;20094;-67
2022/07/22 04:20:59;;;;;;;6.63;1.17;;;15.00;80.80;;;;;;5035955;28;21083;-66
2022/07/22 04:23:24;;;;;;;7.10;1.20;;;15.00;80.80;;;;;;5040241;28;20974;-67
2022/07/22 04:25:50;;;;;;;6.70;1.07;;;15.00;80.80;;;;;;5036569;28;20357;-66
2022/07/22 04:28:16;;;;;;;2.50;0.90;;;15.00;80.80;;;;;;5038917;28;20068;-66
2022/07/22 04:30:42;;;;;;;5.67;1.13;;;15.00;80.60;;;;;;5024656;28;20119;-66
2022/07/22 04:33:07;;;;;;;7.40;1.00;;;15.00;80.80;;;;;;5057624;28;20048;-66
2022/07/22 04:35:33;;;;;;;5.10;1.20;;;15.10;80.70;;;;;;5064887;28;20404;-65
2022/07/22 04:37:59;;;;;;;7.23;1.93;;;15.10;80.80;;;;;;5042778;28;20060;-66
2022/07/22 04:40:24;;;;;;;4.10;1.03;;;15.10;80.70;;;;;;5045546;28;20515;-66
2022/07/22 04:42:50;;;;;;;5.57;1.00;;;15.20;80.60;;;;;;5042164;28;20479;-66
2022/07/22 04:45:16;;;;;;;3.20;0.80;;;15.20;80.40;;;;;;5045388;28;20036;-66
2022/07/22 04:47:42;;;;;;;3.43;0.90;;;15.20;80.50;;;;;;5042540;28;20047;-66
2022/07/22 04:50:08;;;;;;;6.10;0.97;;;15.30;80.40;;;;;;5043433;28;20056;-66
2022/07/22 04:52:34;;;;;;;4.33;1.00;;;15.30;80.30;;;;;;5036737;28;20076;-67
2022/07/22 04:54:59;;;;;;;3.83;0.97;;;15.30;79.70;;;;;;5059275;28;20323;-66
2022/07/22 04:57:26;;;;;;;5.03;0.73;;;15.30;79.80;;;;;;5036358;28;20037;-66
2022/07/22 04:59:52;;;;;;;6.00;1.27;;;15.40;80.00;;;;;;5057271;28;20041;-66
2022/07/22 05:02:19;;;;;;;3.37;1.07;;;15.40;80.50;;;;;;5053950;28;20279;-66
2022/07/22 05:04:44;;;;;;;7.80;1.60;;;15.40;80.90;;;;;;5040753;28;20275;-66
2022/07/22 05:07:11;;;;;;;6.67;1.37;;;15.40;80.70;;;;;;5049984;28;20284;-66
2022/07/22 05:09:37;;;;;;;5.50;1.27;;;15.40;80.40;;;;;;5056205;28;20051;-66
2022/07/22 05:12:03;;;;;;;4.80;1.23;;;15.50;80.50;;;;;;5053447;28;20283;-66
2022/07/22 05:14:29;;;;;;;4.10;1.00;;;15.50;80.50;;;;;;5058939;28;20052;-66
2022/07/22 05:16:55;;;;;;;4.97;1.33;;;15.50;80.10;;;;;;5040389;28;20309;-66
2022/07/22 05:19:20;;;;;;;4.40;1.10;;;15.60;80.00;;;;;;5053438;28;20529;-66
2022/07/22 05:21:46;;;;;;;3.57;1.00;;;15.60;80.10;;;;;;5053268;28;20040;-66
2022/07/22 05:24:12;;;;;;;2.80;0.93;;;15.70;80.20;;;;;;5053544;28;20476;-67
2022/07/22 05:26:38;;;;;;;5.10;1.70;;;15.70;79.80;;;;;;5046075;28;20400;-67
2022/07/22 05:29:03;;;;;;;4.30;0.90;;;15.70;79.70;;;;;;5056745;28;20289;-67
2022/07/22 05:31:29;;;;;;;6.57;1.50;;;15.70;78.60;;;;;;5048590;28;20471;-67
2022/07/22 05:33:55;;;;;;;4.67;1.10;;;15.80;78.80;;;;;;5061812;28;20037;-67
2022/07/22 05:36:21;;;;;;;6.07;0.97;;;15.80;79.10;;;;;;5053688;28;20040;-67
2022/07/22 05:38:47;;;;;;;4.23;1.20;;;15.90;78.80;;;;;;5050366;28;20798;-68
2022/07/22 05:41:13;;;;;;;4.00;0.90;;;15.90;78.20;;;;;;5063564;28;20354;-67
2022/07/22 05:43:39;;;;;;;2.33;0.60;;;16.00;78.40;;;;;;5059895;28;20063;-67
2022/07/22 05:46:05;;;;;;;3.67;1.30;;;16.10;77.20;;;;;;5028726;28;20489;-67
2022/07/22 05:48:31;;;;;;;2.30;0.70;;;16.10;77.00;;;;;;5050774;28;20635;-67
2022/07/22 05:50:57;;;;;;;4.03;0.77;;;16.20;76.90;;;;;;5038835;28;20370;-67
2022/07/22 05:53:23;;;;;;;4.57;0.90;;;16.30;76.90;;;;;;5060540;28;20186;-67
2022/07/22 05:55:49;;;;;;;6.03;1.00;;;16.40;77.40;;;;;;5037304;28;20359;-67
2022/07/22 05:58:15;;;;;;;3.20;0.80;;;16.40;76.50;;;;;;5039159;28;20278;-67
2022/07/22 06:00:41;;;;;;;3.67;0.83;;;16.50;76.60;;;;;;5048344;28;20045;-66
2022/07/22 06:03:07;;;;;;;3.67;0.90;;;16.60;75.30;;;;;;5046217;28;20391;-66
2022/07/22 06:05:33;;;;;;;6.13;0.80;;;16.60;75.40;;;;;;5056926;28;20301;-66
2022/07/22 06:07:58;;;;;;;4.47;1.00;;;16.60;75.80;;;;;;5047307;28;20047;-66
2022/07/22 06:10:24;;;;;;;5.50;0.80;;;16.70;74.20;;;;;;5049565;28;20036;-67
2022/07/22 06:12:50;;;;;;;5.80;0.90;;;16.70;74.40;;;;;;5042195;28;20048;-66
2022/07/22 06:15:15;;;;;;;5.87;1.00;;;16.70;74.40;;;;;;5048412;28;20036;-66
2022/07/22 06:17:41;;;;;;;3.97;1.10;;;16.80;74.50;;;;;;5062903;28;20036;-66
2022/07/22 06:20:07;;;;;;;3.73;1.00;;;16.80;74.40;;;;;;5036867;28;20430;-66
2022/07/22 06:22:33;;;;;;;3.40;0.60;;;16.90;74.60;;;;;;5034324;28;20143;-66
2022/07/22 06:24:59;;;;;;;3.27;0.80;;;17.00;74.50;;;;;;5032678;28;20433;-66
2022/07/22 06:27:24;;;;;;;4.80;1.10;;;17.00;73.70;;;;;;5036818;28;20048;-66
2022/07/22 06:29:50;;;;;;;3.77;1.33;;;17.10;73.10;;;;;;5058976;28;20410;-66
2022/07/22 06:32:16;;;;;;;5.17;1.37;;;17.10;72.70;;;;;;5060488;28;20496;-66
2022/07/22 06:34:41;;;;;;;4.43;0.80;;;17.00;73.30;;;;;;5054544;28;20555;-66
2022/07/22 06:37:08;;;;;;;5.50;1.00;;;17.00;73.20;;;;;;5036393;28;20036;-66
2022/07/22 06:39:34;;;;;;;6.27;1.60;;;17.10;73.40;;;;;;5055028;28;20040;-66
2022/07/22 06:41:59;;;;;;;2.83;0.90;;;17.10;73.00;;;;;;5060442;28;20275;-66
2022/07/22 06:44:25;;;;;;;4.50;1.03;;;17.10;72.60;;;;;;5029070;28;20040;-66
2022/07/22 06:46:51;;;;;;;4.07;0.90;;;17.10;72.70;;;;;;5037422;28;20059;-65
2022/07/22 06:49:16;;;;;;;3.67;0.90;;;17.10;72.90;;;;;;5043517;28;20130;-66
2022/07/22 06:51:42;;;;;;;9.07;1.10;;;17.20;73.20;;;;;;5062040;28;20408;-66
2022/07/22 06:54:08;;;;;;;6.37;1.47;;;17.20;73.30;;;;;;5052431;28;20045;-67
2022/07/22 06:56:34;;;;;;;4.23;1.07;;;17.30;73.00;;;;;;5038143;28;20098;-67
2022/07/22 06:58:59;;;;;;;4.93;1.10;;;17.40;72.60;;;;;;5019479;28;20769;-67
2022/07/22 07:01:25;;;;;;;5.57;0.90;;;17.40;72.30;;;;;;5033690;28;20029;-67
2022/07/22 07:03:51;;;;;;;3.73;0.80;;;17.50;73.00;;;;;;5055636;28;20036;-65
2022/07/22 07:06:17;;;;;;;5.20;1.20;;;17.60;72.70;;;;;;5049068;28;20560;-66
2022/07/22 07:08:42;;;;;;;4.90;1.47;;;17.60;71.40;;;;;;5045771;28;20451;-66
2022/07/22 07:11:08;;;;;;;5.00;0.83;;;17.70;72.60;;;;;;5043005;28;20131;-66
2022/07/22 07:13:34;;;;;;;3.50;0.70;;;17.80;72.00;;;;;;5035395;28;20041;-66
2022/07/22 07:16:00;;;;;;;2.73;0.60;;;17.90;70.20;;;;;;5035299;28;20055;-66
2022/07/22 07:18:25;;;;;;;1.97;0.67;;;18.00;71.30;;;;;;5025987;28;20035;-67
2022/07/22 07:20:51;;;;;;;3.73;0.67;;;18.10;71.10;;;;;;5037106;28;20049;-67
2022/07/22 07:23:17;;;;;;;4.53;0.97;;;18.20;70.70;;;;;;5029071;28;20051;-67
2022/07/22 07:25:43;;;;;;;5.07;0.53;;;18.20;71.40;;;;;;5044396;28;20182;-65
2022/07/22 07:28:08;;;;;;;2.60;0.60;;;18.10;70.50;;;;;;5047710;28;20041;-65
2022/07/22 07:30:34;;;;;;;3.37;0.80;;;18.00;70.70;;;;;;5027597;28;20620;-65
2022/07/22 07:33:01;;;;;;;4.27;0.63;;;18.00;71.10;;;;;;5046192;28;20045;-66
2022/07/22 07:35:27;;;;;;;5.73;0.73;;;17.90;71.20;;;;;;5030829;28;20037;-66
2022/07/22 07:37:53;;;;;;;3.77;1.20;;;17.90;70.20;;;;;;5030066;28;20485;-66
2022/07/22 07:40:19;;;;;;;1.53;0.33;;;17.90;69.90;;;;;;5042369;28;20039;-66
2022/07/22 07:42:45;;;;;;;7.00;0.80;;;17.90;69.80;;;;;;5047085;28;20477;-66
2022/07/22 07:45:11;;;;;;;3.80;0.70;;;17.90;70.00;;;;;;5048198;28;20487;-66
2022/07/22 07:47:37;;;;;;;4.17;1.13;;;18.00;70.80;;;;;;5030230;28;20047;-66
2022/07/22 07:50:08;;;;;;;3.40;0.50;;;18.00;70.20;;;;;;5037863;28;20037;-66
2022/07/22 07:52:51;;;;;;;2.73;0.63;;;18.00;70.80;;;;;;5034709;28;20037;-66
2022/07/22 07:55:18;;;;;;;5.27;0.77;;;18.10;70.70;;;;;;5030615;28;20860;-66
2022/07/22 07:57:46;;;;;;;3.53;0.60;;;18.20;70.70;;;;;;5028791;28;20393;-66
2022/07/22 08:00:12;;;;;;;1.97;0.30;;;18.30;70.60;;;;;;5022589;28;20094;-67
2022/07/22 08:02:39;;;;;;;4.50;0.40;;;18.30;69.90;;;;;;5051185;28;20044;-67
2022/07/22 08:05:05;;;;;;;1.87;0.30;;;18.20;69.60;;;;;;5041229;28;20040;-67
2022/07/22 08:07:31;;;;;;;4.03;0.57;;;18.20;69.70;;;;;;5052338;28;20294;-67
2022/07/22 08:09:57;;;;;;;1.67;0.40;;;18.10;69.60;;;;;;5032298;28;20048;-65
2022/07/22 08:12:22;;;;;;;2.30;0.30;;;18.10;70.30;;;;;;5052585;28;20160;-66
2022/07/22 08:14:48;;;;;;;2.50;0.47;;;18.10;70.10;;;;;;5018362;28;20430;-66
2022/07/22 08:17:13;;;;;;;3.50;0.40;;;18.20;69.60;;;;;;5032027;28;20033;-65
2022/07/22 08:19:39;;;;;;;2.47;0.33;;;18.30;70.00;;;;;;5035187;28;20040;-65
2022/07/22 08:22:05;;;;;;;1.63;0.40;;;18.40;69.60;;;;;;5029855;28;20098;-65
2022/07/22 08:24:31;;;;;;;2.97;0.77;;;18.60;69.40;;;;;;5044064;28;20044;-65
2022/07/22 08:26:56;;;;;;;2.27;0.50;;;18.70;68.30;;;;;;5046191;28;20595;-67
2022/07/22 08:29:22;;;;;;;1.17;0.33;;;18.80;68.80;;;;;;5034732;28;20037;-66
2022/07/22 08:31:48;;;;;;;1.90;0.13;;;19.00;68.30;;;;;;5031829;28;20074;-66
2022/07/22 08:34:13;;;;;;;0.90;0.30;;;19.30;68.00;;;;;;5028836;28;20049;-66
2022/07/22 08:36:39;;;;;;;2.07;0.33;;;19.40;67.20;;;;;;5049356;28;20036;-66
2022/07/22 08:39:05;;;;;;;3.27;0.50;;;19.40;65.30;;;;;;5032962;28;20068;-66
2022/07/22 08:41:35;;;;;;;2.00;0.50;;;19.50;64.80;;;;;;5047527;28;20041;-66
2022/07/22 08:44:03;;;;;;;1.37;0.20;;;19.50;64.90;;;;;;5033223;28;20412;-65
2022/07/22 08:46:29;;;;;;;1.43;0.47;;;19.60;64.10;;;;;;5048227;28;20072;-66
2022/07/22 08:48:56;;;;;;;0.57;0.20;;;19.60;64.00;;;;;;5035715;28;20512;-66
2022/07/22 08:51:21;;;;;;;2.57;0.20;;;19.50;63.40;;;;;;5032685;28;20045;-66
2022/07/22 08:53:47;;;;;;;0.97;0.20;;;19.40;62.40;;;;;;5031959;28;20488;-66
2022/07/22 08:56:14;;;;;;;0.67;0.20;;;19.40;63.30;;;;;;5033502;28;20040;-66
2022/07/22 08:58:41;;;;;;;3.13;0.40;;;19.50;63.40;;;;;;5052531;28;20124;-66
2022/07/22 09:01:12;;;;;;;1.57;0.30;;;19.50;63.20;;;;;;5048836;28;20048;-66
2022/07/22 09:04:07;;;;;;;3.33;0.20;;;19.60;61.40;;;;;;5047314;28;20052;-66
2022/07/22 09:06:35;;;;;;;3.15;0.38;;;19.60;60.00;;;;;;5045484;28;20045;-66
2022/07/22 09:09:06;;;;;;;2.03;0.30;;;19.60;61.50;;;;;;5042812;28;20080;-67
2022/07/22 09:11:31;;;;;;;1.13;0.17;;;19.60;61.40;;;;;;5044835;28;20894;-66
2022/07/22 09:13:59;;;;;;;1.40;0.20;;;19.70;61.30;;;;;;5046267;28;20037;-66
2022/07/22 09:16:44;;;;;;;0.70;0.10;;;19.60;61.10;;;;;;5054155;28;20066;-66
2022/07/22 09:19:11;;;;;;;1.73;0.20;;;19.60;60.70;;;;;;5053503;28;20103;-66
2022/07/22 09:21:38;;;;;;;1.53;0.20;;;19.60;61.20;;;;;;5024175;28;20448;-66
2022/07/22 09:24:05;;;;;;;1.23;0.17;;;19.60;61.60;;;;;;5046312;28;20093;-66
2022/07/22 09:26:31;;;;;;;1.30;0.27;;;19.60;61.70;;;;;;5031300;28;20044;-66
2022/07/22 09:28:58;;;;;;;1.63;0.27;;;19.70;62.10;;;;;;5028733;28;20051;-66
2022/07/22 09:31:30;;;;;;;3.07;0.27;;;19.60;62.60;;;;;;5049716;28;20049;-66
2022/07/22 09:33:57;;;;;;;3.43;0.37;;;19.60;62.90;;;;;;5045975;28;20077;-66
2022/07/22 09:36:23;;;;;;;2.40;0.40;;;19.70;63.30;;;;;;5038494;28;20123;-66
2022/07/22 09:38:48;;;;;;;4.50;0.37;;;19.60;62.70;;;;;;5049745;28;20111;-66
2022/07/22 09:41:14;;;;;;;2.17;0.20;;;19.60;62.70;;;;;;5022222;28;20076;-66
2022/07/22 09:43:40;;;;;;;0.70;0.10;;;19.60;62.50;;;;;;5034498;28;20164;-66
2022/07/22 09:46:06;;;;;;;2.83;0.10;;;19.50;62.50;;;;;;5028345;28;20044;-66
2022/07/22 09:48:32;;;;;;;2.00;0.20;;;19.60;63.10;;;;;;5032035;28;20124;-66
2022/07/22 09:50:58;;;;;;;0.57;0.13;;;19.60;62.50;;;;;;5032163;28;20120;-65
2022/07/22 09:53:29;;;;;;;1.40;0.20;;;19.60;62.40;;;;;;5033880;28;20055;-65
2022/07/22 09:56:04;;;;;;;2.40;0.10;;;19.60;62.60;;;;;;5030282;28;20122;-65
2022/07/22 09:58:30;;;;;;;;;;;19.70;61.30;;;;;;4964994;28;20421;-65
2022/07/22 10:00:59;;;;;;;3.60;0.20;;;19.70;60.80;;;;;;5044830;28;20023;-65
2022/07/22 10:03:31;;;;;;;3.67;0.30;;;19.80;61.60;;;;;;5046203;28;20235;-66
2022/07/22 10:05:58;;;;;;;2.27;0.27;;;19.90;60.80;;;;;;5049465;28;20040;-66
2022/07/22 10:08:29;;;;;;;0.97;0.10;;;20.10;60.90;;;;;;5049207;28;20667;-66
2022/07/22 10:11:03;;;;;;;1.50;0.20;;;20.30;60.60;;;;;;5045573;28;20036;-66
2022/07/22 10:13:30;;;;;;;0.10;0.10;;;20.50;60.30;;;;;;5045154;28;20037;-66
2022/07/22 10:15:57;;;;;;;1.97;0.10;;;20.70;60.60;;;;;;5047300;28;20037;-67
2022/07/22 10:18:25;;;;;;;1.70;0.20;;;20.90;59.20;;;;;;5051712;28;20117;-65
2022/07/22 10:21:09;;;;;;;1.53;0.20;;;21.10;59.50;;;;;;5048463;28;20541;-67
2022/07/22 10:23:36;;;;;;;1.65;0.17;;;21.20;58.80;;;;;;5046836;28;20048;-67
2022/07/22 10:26:03;;;;;;;1.60;0.10;;;21.30;58.00;;;;;;5051593;28;20083;-67
2022/07/22 10:28:30;;;;;;;1.73;0.23;;;21.30;57.90;;;;;;5034795;28;20424;-66
2022/07/22 10:31:19;;;;;;;0.93;0.10;;;21.40;57.70;;;;;;5027974;28;20047;-66
2022/07/22 10:33:49;;;;;;;0.37;0.10;;;21.60;56.10;;;;;;5029082;28;21142;-66
2022/07/22 10:36:47;;;;;;;1.63;0.23;;;21.60;56.80;;;;;;5045004;28;20126;-66
2022/07/22 10:39:13;;;;;;;1.45;0.17;;;21.60;54.30;;;;;;5020352;28;20068;-66
2022/07/22 10:41:44;;;;;;;2.73;0.20;;;21.60;56.10;;;;;;5044954;28;20052;-66
2022/07/22 10:44:11;;;;;;;0.93;0.20;;;21.70;55.30;;;;;;5043483;28;20037;-66
2022/07/22 10:46:53;;;;;;;3.03;0.27;;;21.60;55.00;;;;;;5045203;28;20374;-66
2022/07/22 10:49:21;;;;;;;1.20;0.10;;;21.60;54.80;;;;;;5042926;28;20120;-66
2022/07/22 10:52:06;;;;;;;1.30;0.20;;;21.50;54.50;;;;;;5051075;28;20051;-66
2022/07/22 10:54:32;;;;;;;2.38;0.20;;;21.50;54.90;;;;;;5042283;28;20053;-67
2022/07/22 10:57:00;;;;;;;2.27;0.40;;;21.50;55.60;;;;;;5044992;28;20047;-67
2022/07/22 10:59:29;;;;;;;3.37;0.30;;;21.50;55.70;;;;;;5041549;28;20060;-65
2022/07/22 11:01:57;;;;;;;1.87;0.40;;;21.50;55.50;;;;;;5043786;28;20039;-66
2022/07/22 11:04:26;;;;;;;1.17;0.20;;;21.30;55.10;;;;;;5045356;28;20040;-66
2022/07/22 11:06:54;;;;;;;1.57;0.20;;;21.10;55.10;;;;;;5030956;28;20380;-66
2022/07/22 11:09:22;;;;;;;0.87;0.20;;;21.10;55.10;;;;;;5029762;28;20158;-66
2022/07/22 11:11:50;;;;;;;0.83;0.20;;;21.00;55.20;;;;;;5048698;28;20101;-66
2022/07/22 11:14:32;;;;;;;3.33;0.30;;;21.00;55.80;;;;;;5046577;28;20033;-66
2022/07/22 11:17:06;;;;;;;0.90;0.20;;;21.10;55.50;;;;;;5041725;28;20071;-65
2022/07/22 11:19:32;;;;;;;1.83;0.20;;;21.10;54.50;;;;;;5055602;28;20625;-65
2022/07/22 11:22:05;;;;;;;0.50;0.20;;;21.00;54.10;;;;;;5038342;28;20174;-66
2022/07/22 11:24:31;;;;;;;1.20;0.20;;;21.00;54.40;;;;;;5053549;28;20048;-66
2022/07/22 11:26:58;;;;;;;1.10;0.17;;;20.90;54.60;;;;;;5031172;28;20500;-66
2022/07/22 11:29:44;;;;;;;1.03;0.30;;;20.80;54.20;;;;;;5047978;28;20047;-66
2022/07/22 11:32:12;;;;;;;1.63;0.20;;;20.70;54.00;;;;;;5050011;28;20063;-66
2022/07/22 11:34:47;;;;;;;1.33;0.20;;;20.80;54.80;;;;;;5046588;28;20103;-66
2022/07/22 11:37:14;;;;;;;0.80;0.10;;;20.90;55.80;;;;;;5058364;28;20472;-66
2022/07/22 11:39:40;;;;;;;1.83;0.20;;;21.00;55.10;;;;;;5036281;28;20083;-65
2022/07/22 11:42:07;;;;;;;0.77;0.30;;;21.10;55.20;;;;;;5043043;28;20040;-66
2022/07/22 11:44:35;;;;;;;3.47;0.40;;;21.20;54.90;;;;;;5035156;28;20080;-66
2022/07/22 11:47:01;;;;;;;0.77;0.30;;;21.20;54.50;;;;;;5052694;28;20783;-66
2022/07/22 11:49:50;;;;;;;0.67;0.20;;;21.30;55.00;;;;;;5050901;28;20135;-66
2022/07/22 11:52:16;;;;;;;1.07;0.20;;;21.20;53.60;;;;;;5053603;28;20037;-66
2022/07/22 11:54:44;;;;;;;0.50;0.10;;;21.30;53.70;;;;;;5030807;28;20049;-66
2022/07/22 11:57:11;;;;;;;1.70;0.10;;;21.20;53.10;;;;;;5026813;28;20041;-66
2022/07/22 11:59:36;;;;;;;2.43;0.30;;;21.20;53.40;;;;;;5032576;28;20568;-66
2022/07/22 12:02:06;;;;;;;1.77;0.40;;;21.30;53.50;;;;;;5046413;28;20039;-66
2022/07/22 12:04:33;;;;;;;2.47;0.17;;;21.40;53.90;;;;;;5054173;28;20049;-67
2022/07/22 12:07:01;;;;;;;1.20;0.23;;;21.40;53.40;;;;;;5050518;28;20513;-67
2022/07/22 12:09:32;;;;;;;0.87;0.20;;;21.50;53.60;;;;;;5050879;28;20559;-66
2022/07/22 12:11:58;;;;;;;1.27;0.20;;;21.60;53.00;;;;;;5053136;28;20036;-66
2022/07/22 12:14:27;;;;;;;2.70;0.40;;;21.70;53.50;;;;;;5033497;28;20043;-66
2022/07/22 12:17:05;;;;;;;1.47;0.30;;;21.90;52.80;;;;;;5060231;28;20044;-66
2022/07/22 12:19:33;;;;;;;1.23;0.23;;;22.10;52.70;;;;;;5052835;28;20418;-66
2022/07/22 12:22:12;;;;;;;1.83;0.20;;;22.20;51.40;;;;;;5054204;28;20047;-66
2022/07/22 12:24:40;;;;;;;2.00;0.50;;;22.30;50.60;;;;;;5067757;28;20082;-66
2022/07/22 12:27:10;;;;;;;0.70;0.13;;;22.30;51.00;;;;;;5042542;28;20389;-66
2022/07/22 12:29:36;;;;;;;0.40;0.20;;;22.10;50.70;;;;;;5024867;28;20040;-66
2022/07/22 12:32:07;;;;;;;2.70;0.20;;;22.00;51.20;;;;;;5047091;28;20089;-66
2022/07/22 12:34:43;;;;;;;1.97;0.43;;;22.00;52.40;;;;;;5055852;28;20044;-66
2022/07/22 12:37:22;;;;;;;2.10;0.40;;;22.00;52.90;;;;;;5051892;28;20397;-66
2022/07/22 12:40:04;;;;;;;1.47;0.10;;;22.10;52.10;;;;;;5058512;28;20032;-66
2022/07/22 12:42:38;;;;;;;1.10;0.20;;;22.10;52.70;;;;;;5057830;28;20124;-66
2022/07/22 12:45:06;;;;;;;;;;;22.10;53.30;;;;;;5047750;28;20028;-67
2022/07/22 12:47:51;;;;;;;1.30;0.20;;;22.00;52.30;;;;;;5056185;28;19920;-67